Search METAR Data

METAR Data for ENBV:

ENBV 211350Z AUTO 04004KT 9999 NCD 14/11 Q1015